Windcrest, Texas
Current Conditions -  °F | °C
As of 4:58 AM on Saturday 25 Oct 2014 (Local Time) from KRND Reporting Station
Clear Clear  
Wind Chill: 66°   Ceiling: Unl
Heat Index: 66°   Visibility: 10mi
Dew Point: 58°   Wind: 5mph
Humidity: 77%   Direction: 260°W
Pressure: 30.15"   Gusts: NA
Location:  29.5172°N, 98.362°W
Report Text: KRND 250958Z AUTO 26004KT 10SM CLR 19/15 A3015 RMK AO2 SLP203 T01870145
Loading
Personal Weather Stations






























Interactive Weather Map
Tropical Storm Tracking
New forecast layout! Learn more

10-Day Weather Forecast

Advertisements
Track Severe Weather on mobile